• Join FlightAware (Why Join?)
  • Login
  • US Flag 
04:27PM EDT


 

Airport Tracker/Info


-or-


 

Live Flight TrackerFlight Track Log ✈ N2441K ✈ 26-Jul-2013 ✈ KXNA - KIXD

Flight Track Log - Related Links

Times and Time Zones

All times are in EDT time to prevent confusion due to time zone crossing. See the N2441K flight status page for this flight to view local times or setup timezone preferences in your user account.

Time Position Orientation Groundspeed Altitude Reporting Facility
EDT Latitude Longitude Course Direction KTS MPH feet Rate Location/Type
08:03PM 36.2303 -94.3089 350° North 193 222 3,100  Level Kansas City Center
08:04PM 36.2178 -94.3703 256° West 188 216 5,400 1,740 Climbing Kansas City Center
08:05PM 36.2717 -94.3753 356° North 193 222 6,800 1,380 Climbing Kansas City Center
08:06PM 36.3269 -94.3744 North 194 223 8,300 1,320 Climbing Kansas City Center
08:07PM 36.3822 -94.3989 340° North 207 238 9,600 1,260 Climbing Kansas City Center
08:08PM 36.6577 -94.3912 350° North  Level Estimated
08:08PM 36.4369 -94.4042 356° North 205 236 11,000  Level Kansas City Center
08:09PM 36.4944 -94.3992 North 205 236 12,500 1,500 Climbing Kansas City Center
08:10PM 36.5628 -94.4089 353° North 211 243 14,200 1,500 Climbing Kansas City Center
08:11PM 36.6219 -94.4056 North 212 244 15,700 900 Climbing Kansas City Center
08:12PM 36.6831 -94.4192 350° North 218 251 16,100 60 Climbing Kansas City Center
08:13PM 36.7553 -94.4256 356° North 241 277 15,900 -60 Descending Kansas City Center
08:14PM 36.8267 -94.4289 358° North 251 289 16,000  Climbing Kansas City Center
08:15PM 36.8969 -94.4428 351° North 253 291 16,000  Level Kansas City Center
08:16PM 36.9786 -94.4758 342° North 256 295 16,000  Level Kansas City Center
08:17PM 37.0489 -94.4867 353° North 257 296 16,000  Level Kansas City Center
08:18PM 37.1178 -94.4869 360° North 253 291 16,000  Level Kansas City Center
08:19PM 37.1850 -94.5072 346° North 251 289 16,000  Level Kansas City Center
08:20PM 37.2522 -94.5344 342° North 251 289 16,000  Level Kansas City Center
08:21PM 37.3228 -94.5497 350° North 259 298 16,000  Level Kansas City Center
08:22PM 37.4067 -94.5700 349° North 257 296 16,000  Level Kansas City Center
08:24PM 37.4797 -94.5856 350° North 262 302 16,000  Level Kansas City Center
08:25PM 37.5508 -94.5994 351° North 260 299 16,000  Level Kansas City Center
08:26PM 37.6222 -94.6106 353° North 259 298 16,000  Level Kansas City Center
08:27PM 37.6956 -94.6244 351° North 258 297 16,000 -120 Level Kansas City Center
08:28PM 37.7722 -94.6492 346° North 256 295 15,800 -300 Descending Kansas City Center
08:29PM 37.8422 -94.6606 353° North 261 300 15,500 -360 Descending Kansas City Center
08:30PM 37.9131 -94.6661 356° North 266 306 15,100 -600 Descending Kansas City Center
08:31PM 37.9944 -94.6922 346° North 269 310 14,300 -900 Descending Kansas City Center
08:32PM 38.0625 -94.7175 344° North 267 307 13,300 -1,500 Descending Kansas City Center
08:33PM 38.1375 -94.7417 346° North 254 292 11,300 -1,740 Descending Kansas City Center
08:34PM 38.1981 -94.7542 351° North 235 270 9,800 -1,620 Descending Kansas City Center
08:35PM 38.2661 -94.7656 353° North 226 260 8,000 -1,560 Descending Kansas City Center
08:36PM 38.3264 -94.7733 354° North 226 260 6,600 -1,260 Descending Kansas City Center
08:37PM 38.3942 -94.7942 346° North 223 257 5,500 -780 Descending Kansas City Center
08:38PM 38.4483 -94.8111 346° North 212 244 5,000 -660 Descending Kansas City Center
08:39PM 38.5100 -94.8303 346° North 204 235 4,200 -660 Descending Kansas City Center
08:40PM 38.5619 -94.8453 347° North 197 227 3,700 -540 Descending Kansas City Center
08:41PM 38.6200 -94.8617 348° North 191 220 3,100 -360 Descending Kansas City Center
08:42PM 38.6672 -94.8792 344° North 185 213 3,000 -120 Descending Kansas City Center
08:43PM 38.7094 -94.8911 348° North 164 189 2,900 -300 Descending Kansas City Center
08:44PM 38.7522 -94.8925 359° North 139 160 2,400 -540 Descending Kansas City Center
08:45PM 38.7819 -94.8917 North 113 130 1,800 -600 Descending Kansas City Center
08:46PM 38.8139 -94.8911 North 105 121 1,200 -600 Descending Kansas City Center